Time;durP1;ratioP1;P1;durP2;ratioP2;P2;SDS_P1;SDS_P2;PMS_P1;PMS_P2;Temp;Humidity;BMP_temperature;BMP_pressure;BME280_temperature;BME280_humidity;BME280_pressure;Samples;Min_cycle;Max_cycle;Signal;HPM_P1;HPM_P2
2021/07/11 00:00:48;;;;;;;13.45;11.93;;;;;;;;;;4969579;28;20181;-71
2021/07/11 00:03:13;;;;;;;13.35;11.95;;;;;;;;;;4969794;28;20303;-73
2021/07/11 00:05:39;;;;;;;11.50;10.32;;;;;;;;;;4963269;28;20200;-71
2021/07/11 00:08:04;;;;;;;13.05;11.23;;;;;;;;;;4969498;28;20173;-73
2021/07/11 00:10:29;;;;;;;15.48;12.35;;;;;;;;;;4973970;28;20208;-70
2021/07/11 00:12:55;;;;;;;17.43;12.07;;;;;;;;;;4973138;28;20367;-73
2021/07/11 00:15:22;;;;;;;11.60;10.40;;;;;;;;;;4968006;28;20446;-71
2021/07/11 00:17:48;;;;;;;12.15;9.93;;;;;;;;;;4966167;28;20270;-70
2021/07/11 00:20:15;;;;;;;14.35;12.60;;;;;;;;;;4966709;28;20338;-71
2021/07/11 00:22:40;;;;;;;12.00;10.77;;;;;;;;;;4966645;28;20181;-71
2021/07/11 00:25:07;;;;;;;16.35;12.35;;;;;;;;;;4964004;28;20865;-72
2021/07/11 00:27:32;;;;;;;14.07;11.27;;;;;;;;;;4962485;28;20729;-71
2021/07/11 00:29:58;;;;;;;12.98;11.48;;;;;;;;;;4958861;28;20216;-72
2021/07/11 00:32:23;;;;;;;14.73;12.23;;;;;;;;;;4970648;28;20287;-72
2021/07/11 00:34:48;;;;;;;15.57;12.25;;;;;;;;;;4970671;28;20673;-72
2021/07/11 00:37:13;;;;;;;12.32;11.02;;;;;;;;;;4973697;28;20184;-73
2021/07/11 00:39:38;;;;;;;12.87;11.17;;;;;;;;;;4970083;28;20271;-72
2021/07/11 00:42:04;;;;;;;11.87;10.40;;;;;;;;;;4970403;28;20446;-73
2021/07/11 00:44:29;;;;;;;12.88;11.48;;;;;;;;;;4965433;28;20529;-72
2021/07/11 00:46:54;;;;;;;13.00;10.95;;;;;;;;;;4988642;28;20176;-73
2021/07/11 00:49:19;;;;;;;14.20;11.43;;;;;;;;;;4958968;28;20268;-70
2021/07/11 00:51:45;;;;;;;14.40;11.13;;;;;;;;;;4972163;28;20650;-72
2021/07/11 00:54:10;;;;;;;11.35;10.25;;;;;;;;;;4966917;28;20689;-72
2021/07/11 00:56:35;;;;;;;13.90;11.93;;;;;;;;;;4962804;28;20223;-71
2021/07/11 00:59:01;;;;;;;12.57;10.48;;;;;;;;;;4966447;28;20558;-71
2021/07/11 01:01:32;;;;;;;12.85;10.70;;;;;;;;;;4964700;28;20181;-72
2021/07/11 01:04:01;;;;;;;11.02;9.77;;;;;;;;;;4970142;28;20279;-72
2021/07/11 01:06:28;;;;;;;15.30;11.85;;;;;;;;;;4969633;28;20730;-72
2021/07/11 01:09:00;;;;;;;12.10;10.07;;;;;;;;;;4967031;28;20278;-72
2021/07/11 01:11:27;;;;;;;15.68;11.70;;;;;;;;;;4966901;28;20630;-73
2021/07/11 01:13:54;;;;;;;11.98;10.63;;;;;;;;;;4963715;28;20225;-73
2021/07/11 01:16:22;;;;;;;14.25;11.68;;;;;;;;;;4967246;28;20181;-72
2021/07/11 01:18:47;;;;;;;13.45;10.23;;;;;;;;;;4953672;28;20176;-70
2021/07/11 01:21:13;;;;;;;12.98;11.63;;;;;;;;;;4968073;28;20188;-72
2021/07/11 01:23:44;;;;;;;15.20;11.35;;;;;;;;;;4967657;28;20205;-72
2021/07/11 01:26:10;;;;;;;12.55;11.25;;;;;;;;;;4977225;28;20176;-72
2021/07/11 01:28:36;;;;;;;12.38;11.00;;;;;;;;;;4968390;28;20223;-72
2021/07/11 01:31:02;;;;;;;13.20;10.57;;;;;;;;;;4968299;28;20180;-72
2021/07/11 01:33:28;;;;;;;13.32;10.80;;;;;;;;;;4960799;28;20209;-72
2021/07/11 01:35:54;;;;;;;11.73;10.43;;;;;;;;;;4973987;28;20188;-72
2021/07/11 01:38:21;;;;;;;13.50;12.05;;;;;;;;;;4967195;28;20231;-72
2021/07/11 01:40:47;;;;;;;13.80;12.30;;;;;;;;;;4960722;28;20567;-72
2021/07/11 01:43:15;;;;;;;14.27;12.45;;;;;;;;;;4963500;28;20200;-72
2021/07/11 01:45:41;;;;;;;14.43;12.52;;;;;;;;;;4962495;28;20271;-72
2021/07/11 01:48:07;;;;;;;18.23;12.73;;;;;;;;;;4961030;28;20181;-72
2021/07/11 01:50:32;;;;;;;12.57;11.27;;;;;;;;;;4963168;28;20256;-71
2021/07/11 01:52:57;;;;;;;14.70;12.13;;;;;;;;;;4970935;28;20799;-72
2021/07/11 01:55:25;;;;;;;16.38;13.00;;;;;;;;;;4969914;28;20247;-72
2021/07/11 01:57:51;;;;;;;16.00;13.38;;;;;;;;;;4976976;28;20181;-72
2021/07/11 02:00:17;;;;;;;22.17;16.75;;;;;;;;;;4959630;28;20271;-72
2021/07/11 02:02:43;;;;;;;20.13;17.63;;;;;;;;;;4963008;28;20191;-72
2021/07/11 02:05:09;;;;;;;25.15;18.65;;;;;;;;;;4964996;28;20222;-72
2021/07/11 02:07:34;;;;;;;22.55;18.25;;;;;;;;;;4962098;28;20187;-72
2021/07/11 02:10:00;;;;;;;19.77;16.30;;;;;;;;;;4968785;28;20176;-72
2021/07/11 02:12:27;;;;;;;20.30;18.08;;;;;;;;;;4961607;28;20227;-72
2021/07/11 02:14:53;;;;;;;23.55;19.15;;;;;;;;;;4963883;28;20740;-72
2021/07/11 02:17:19;;;;;;;23.17;19.77;;;;;;;;;;4964064;28;20183;-72
2021/07/11 02:19:46;;;;;;;23.02;20.30;;;;;;;;;;4968574;28;20561;-71
2021/07/11 02:22:11;;;;;;;22.00;19.08;;;;;;;;;;4963413;28;20653;-72
2021/07/11 02:24:41;;;;;;;22.98;18.92;;;;;;;;;;4977306;28;20234;-72
2021/07/11 02:27:08;;;;;;;23.90;19.90;;;;;;;;;;4957763;28;20658;-72
2021/07/11 02:29:42;;;;;;;23.13;20.42;;;;;;;;;;4966064;28;20689;-71
2021/07/11 02:32:09;;;;;;;24.55;20.08;;;;;;;;;;4962171;28;20263;-72
2021/07/11 02:34:36;;;;;;;25.88;21.88;;;;;;;;;;4968654;28;20207;-71
2021/07/11 02:37:02;;;;;;;26.20;21.40;;;;;;;;;;4959446;28;20191;-71
2021/07/11 02:39:27;;;;;;;25.05;20.45;;;;;;;;;;4971227;28;20176;-71
2021/07/11 02:41:54;;;;;;;25.08;22.33;;;;;;;;;;4969439;28;20187;-71
2021/07/11 02:44:20;;;;;;;27.75;22.38;;;;;;;;;;4967104;28;20204;-70
2021/07/11 02:46:49;;;;;;;33.15;24.55;;;;;;;;;;4972009;28;20202;-70
2021/07/11 02:49:17;;;;;;;30.67;24.58;;;;;;;;;;4966062;28;20553;-70
2021/07/11 02:51:43;;;;;;;32.40;25.38;;;;;;;;;;4961641;28;20176;-70
2021/07/11 02:54:13;;;;;;;34.33;27.10;;;;;;;;;;4961712;28;20286;-71
2021/07/11 02:56:39;;;;;;;32.22;26.52;;;;;;;;;;4962713;28;20184;-72
2021/07/11 02:59:06;;;;;;;33.00;25.70;;;;;;;;;;4964400;28;20194;-72
2021/07/11 03:01:32;;;;;;;32.55;26.27;;;;;;;;;;4964630;28;20184;-72
2021/07/11 03:03:57;;;;;;;33.53;25.92;;;;;;;;;;4958973;28;20202;-70
2021/07/11 03:06:23;;;;;;;31.98;24.67;;;;;;;;;;4970281;28;20223;-70
2021/07/11 03:08:48;;;;;;;32.65;25.55;;;;;;;;;;4980931;28;20227;-71
2021/07/11 03:11:13;;;;;;;33.13;26.30;;;;;;;;;;4971931;28;20247;-71
2021/07/11 03:13:39;;;;;;;30.50;25.25;;;;;;;;;;4965893;28;20447;-70
2021/07/11 03:16:05;;;;;;;33.85;25.42;;;;;;;;;;4971618;28;20187;-71
2021/07/11 03:18:30;;;;;;;31.17;25.60;;;;;;;;;;4969188;28;20204;-70
2021/07/11 03:20:56;;;;;;;34.70;25.95;;;;;;;;;;4963868;28;20226;-71
2021/07/11 03:23:21;;;;;;;33.03;25.50;;;;;;;;;;4974618;28;20637;-71
2021/07/11 03:25:48;;;;;;;34.05;25.80;;;;;;;;;;4954841;28;20694;-71
2021/07/11 03:28:14;;;;;;;32.58;26.08;;;;;;;;;;4977791;28;20185;-71
2021/07/11 03:30:43;;;;;;;36.05;26.83;;;;;;;;;;4967273;28;20223;-72
2021/07/11 03:33:09;;;;;;;35.13;26.67;;;;;;;;;;4967064;28;20173;-73
2021/07/11 03:35:47;;;;;;;31.08;25.23;;;;;;;;;;4961512;28;20543;-70
2021/07/11 03:38:18;;;;;;;32.85;24.33;;;;;;;;;;4962491;28;20487;-70
2021/07/11 03:40:45;;;;;;;33.10;24.85;;;;;;;;;;4966969;28;20181;-72
2021/07/11 03:43:11;;;;;;;32.65;25.95;;;;;;;;;;4959238;28;20200;-72
2021/07/11 03:45:38;;;;;;;31.55;25.98;;;;;;;;;;4956741;28;20219;-73
2021/07/11 03:48:07;;;;;;;31.00;24.40;;;;;;;;;;4956723;28;20182;-72
2021/07/11 03:50:33;;;;;;;33.85;25.70;;;;;;;;;;4961191;28;20589;-72
2021/07/11 03:53:05;;;;;;;31.00;24.42;;;;;;;;;;4960250;28;20181;-72
2021/07/11 03:55:32;;;;;;;29.63;23.95;;;;;;;;;;4978216;28;20180;-72
2021/07/11 03:57:58;;;;;;;34.38;25.63;;;;;;;;;;4978290;28;20176;-72
2021/07/11 04:00:23;;;;;;;32.08;24.77;;;;;;;;;;4966889;28;20578;-72
2021/07/11 04:02:49;;;;;;;32.15;24.45;;;;;;;;;;4969091;28;20259;-72
2021/07/11 04:05:17;;;;;;;33.45;25.27;;;;;;;;;;4959160;28;20214;-72
2021/07/11 04:07:42;;;;;;;32.45;23.67;;;;;;;;;;4964982;28;20181;-73
2021/07/11 04:10:09;;;;;;;31.27;24.33;;;;;;;;;;4955753;28;20196;-72
2021/07/11 04:12:34;;;;;;;31.23;23.67;;;;;;;;;;4966514;28;20594;-72
2021/07/11 04:15:00;;;;;;;28.88;23.55;;;;;;;;;;4960383;28;20213;-73
2021/07/11 04:17:27;;;;;;;28.48;22.73;;;;;;;;;;4962713;28;20207;-72
2021/07/11 04:19:55;;;;;;;31.55;25.00;;;;;;;;;;4966792;28;20252;-73
2021/07/11 04:22:21;;;;;;;32.38;26.95;;;;;;;;;;4962524;28;20193;-73
2021/07/11 04:24:46;;;;;;;33.25;26.40;;;;;;;;;;4969346;28;20200;-71
2021/07/11 04:27:12;;;;;;;32.80;25.98;;;;;;;;;;4973120;28;20176;-73
2021/07/11 04:29:38;;;;;;;30.02;23.88;;;;;;;;;;4964375;28;20209;-71
2021/07/11 04:32:04;;;;;;;34.25;25.83;;;;;;;;;;4963245;28;20646;-71
2021/07/11 04:34:37;;;;;;;31.88;26.00;;;;;;;;;;4959544;28;20208;-70
2021/07/11 04:37:03;;;;;;;31.33;25.33;;;;;;;;;;4969607;28;20248;-73
2021/07/11 04:39:29;;;;;;;31.38;25.20;;;;;;;;;;4971827;28;20180;-73
2021/07/11 04:41:55;;;;;;;30.70;25.92;;;;;;;;;;4962888;28;20177;-72
2021/07/11 04:44:20;;;;;;;32.05;26.25;;;;;;;;;;4966265;28;20223;-72
2021/07/11 04:46:45;;;;;;;35.25;26.50;;;;;;;;;;4960775;28;20165;-73
2021/07/11 04:49:11;;;;;;;34.22;27.17;;;;;;;;;;4958596;28;20184;-72
2021/07/11 04:51:36;;;;;;;32.10;25.67;;;;;;;;;;4969820;28;20181;-72
2021/07/11 04:54:05;;;;;;;33.17;26.15;;;;;;;;;;4982400;28;20279;-73
2021/07/11 04:56:30;;;;;;;34.67;27.13;;;;;;;;;;4968862;28;20203;-73
2021/07/11 04:58:56;;;;;;;29.20;23.52;;;;;;;;;;4966036;28;20670;-73
2021/07/11 05:01:21;;;;;;;30.08;24.27;;;;;;;;;;4969631;28;20724;-72
2021/07/11 05:03:46;;;;;;;30.00;24.58;;;;;;;;;;4965701;28;20213;-71
2021/07/11 05:06:11;;;;;;;27.45;23.77;;;;;;;;;;4970299;28;20207;-73
2021/07/11 05:08:36;;;;;;;30.75;24.42;;;;;;;;;;4970929;28;20278;-71
2021/07/11 05:11:02;;;;;;;27.97;22.40;;;;;;;;;;4972008;28;20208;-73
2021/07/11 05:13:27;;;;;;;28.80;23.27;;;;;;;;;;4965294;28;20529;-71
2021/07/11 05:15:52;;;;;;;31.23;22.87;;;;;;;;;;4960889;28;20212;-70
2021/07/11 05:18:17;;;;;;;29.90;23.73;;;;;;;;;;4957926;28;20430;-72
2021/07/11 05:20:42;;;;;;;28.95;22.38;;;;;;;;;;4971127;28;21000;-70
2021/07/11 05:23:07;;;;;;;25.77;21.65;;;;;;;;;;4964749;28;20176;-71
2021/07/11 05:25:33;;;;;;;28.08;23.17;;;;;;;;;;4963286;28;20204;-73
2021/07/11 05:28:02;;;;;;;26.17;20.88;;;;;;;;;;4963990;28;20176;-71
2021/07/11 05:30:27;;;;;;;26.75;21.63;;;;;;;;;;4971458;28;20176;-71
2021/07/11 05:32:52;;;;;;;26.70;20.95;;;;;;;;;;4979973;28;20183;-70
2021/07/11 05:35:18;;;;;;;28.38;21.88;;;;;;;;;;4964250;28;20212;-72
2021/07/11 05:37:43;;;;;;;27.92;22.80;;;;;;;;;;4961652;28;20645;-72
2021/07/11 05:40:08;;;;;;;29.17;22.25;;;;;;;;;;4969612;28;20222;-73
2021/07/11 05:42:33;;;;;;;28.85;22.67;;;;;;;;;;4968427;28;20271;-71
2021/07/11 05:44:59;;;;;;;28.48;23.55;;;;;;;;;;4954884;28;20708;-71
2021/07/11 05:47:25;;;;;;;31.05;24.33;;;;;;;;;;4971985;28;20176;-71
2021/07/11 05:49:50;;;;;;;29.80;23.25;;;;;;;;;;4964535;28;20187;-71
2021/07/11 05:52:15;;;;;;;28.13;23.47;;;;;;;;;;4965928;28;20179;-72
2021/07/11 05:54:40;;;;;;;26.90;23.30;;;;;;;;;;4969297;28;20445;-72
2021/07/11 05:57:05;;;;;;;27.60;22.48;;;;;;;;;;4971151;28;20183;-71
2021/07/11 05:59:31;;;;;;;24.93;22.23;;;;;;;;;;4965377;28;20223;-71
2021/07/11 06:01:56;;;;;;;26.45;21.55;;;;;;;;;;4966475;28;20418;-72
2021/07/11 06:04:21;;;;;;;28.42;23.20;;;;;;;;;;4962693;28;20241;-72
2021/07/11 06:06:46;;;;;;;28.20;23.03;;;;;;;;;;4970076;28;20259;-71
2021/07/11 06:09:11;;;;;;;26.33;23.10;;;;;;;;;;4969525;28;20421;-72
2021/07/11 06:11:37;;;;;;;27.13;22.42;;;;;;;;;;4971369;28;20438;-72
2021/07/11 06:14:02;;;;;;;28.45;23.85;;;;;;;;;;4971504;28;20259;-71
2021/07/11 06:16:27;;;;;;;26.40;23.23;;;;;;;;;;4964501;28;20176;-72
2021/07/11 06:18:52;;;;;;;31.50;24.20;;;;;;;;;;4963135;28;20677;-72
2021/07/11 06:21:18;;;;;;;26.07;22.17;;;;;;;;;;4977197;28;20165;-71
2021/07/11 06:23:43;;;;;;;26.23;22.15;;;;;;;;;;4965043;28;20528;-71
2021/07/11 06:26:08;;;;;;;26.40;22.30;;;;;;;;;;4964157;28;20625;-72
2021/07/11 06:28:33;;;;;;;28.90;22.20;;;;;;;;;;4962690;28;20199;-71
2021/07/11 06:30:58;;;;;;;28.40;23.45;;;;;;;;;;4960352;28;20434;-72
2021/07/11 06:33:24;;;;;;;28.48;23.20;;;;;;;;;;4973499;28;20200;-72
2021/07/11 06:35:49;;;;;;;27.88;23.73;;;;;;;;;;4968275;28;20169;-71
2021/07/11 06:38:14;;;;;;;27.33;23.15;;;;;;;;;;4963636;28;20200;-72
2021/07/11 06:40:39;;;;;;;27.25;23.60;;;;;;;;;;4966278;28;20617;-71
2021/07/11 06:43:05;;;;;;;29.00;24.08;;;;;;;;;;4967137;28;20264;-71
2021/07/11 06:45:30;;;;;;;29.20;24.33;;;;;;;;;;4961189;28;20200;-72
2021/07/11 06:47:55;;;;;;;31.63;25.42;;;;;;;;;;4957637;28;20184;-72
2021/07/11 06:50:20;;;;;;;31.67;25.50;;;;;;;;;;4960319;28;20667;-72
2021/07/11 06:52:48;;;;;;;33.77;26.67;;;;;;;;;;4979813;28;20650;-72
2021/07/11 06:55:13;;;;;;;35.38;27.67;;;;;;;;;;4968654;28;20813;-72
2021/07/11 06:57:39;;;;;;;33.67;27.15;;;;;;;;;;4959214;28;20196;-73
2021/07/11 07:00:06;;;;;;;37.80;28.13;;;;;;;;;;4963018;28;20214;-73
2021/07/11 07:02:31;;;;;;;34.25;28.55;;;;;;;;;;4965494;28;20742;-73
2021/07/11 07:04:56;;;;;;;34.13;27.17;;;;;;;;;;4966407;28;20291;-74
2021/07/11 07:07:21;;;;;;;36.63;29.15;;;;;;;;;;4960922;28;20411;-73
2021/07/11 07:09:46;;;;;;;38.47;28.77;;;;;;;;;;4983252;28;20559;-75
2021/07/11 07:12:11;;;;;;;37.23;28.63;;;;;;;;;;4971578;28;20557;-74
2021/07/11 07:14:37;;;;;;;37.33;28.95;;;;;;;;;;4962969;28;20458;-75
2021/07/11 07:17:02;;;;;;;36.22;28.52;;;;;;;;;;4961404;28;20519;-73
2021/07/11 07:19:27;;;;;;;40.13;31.20;;;;;;;;;;4968182;28;20176;-73
2021/07/11 07:21:52;;;;;;;37.60;28.27;;;;;;;;;;4965235;28;20195;-73
2021/07/11 07:24:18;;;;;;;39.97;29.67;;;;;;;;;;4967343;28;20454;-73
2021/07/11 07:26:43;;;;;;;40.70;31.10;;;;;;;;;;4960663;28;20169;-73
2021/07/11 07:29:09;;;;;;;45.72;32.30;;;;;;;;;;4968677;28;20267;-73
2021/07/11 07:31:35;;;;;;;47.00;32.78;;;;;;;;;;4966545;28;20218;-74
2021/07/11 07:34:01;;;;;;;43.92;32.28;;;;;;;;;;4964232;28;20188;-73
2021/07/11 07:36:26;;;;;;;45.28;32.22;;;;;;;;;;4969734;28;20183;-73
2021/07/11 07:38:51;;;;;;;42.67;32.63;;;;;;;;;;4963294;28;20562;-73
2021/07/11 07:41:16;;;;;;;44.28;34.15;;;;;;;;;;4967576;28;20193;-75
2021/07/11 07:43:41;;;;;;;41.03;30.67;;;;;;;;;;4962373;28;20196;-75
2021/07/11 07:46:07;;;;;;;40.13;29.85;;;;;;;;;;4978259;28;20491;-73
2021/07/11 07:48:32;;;;;;;40.45;29.13;;;;;;;;;;4964529;28;20183;-73
2021/07/11 07:50:58;;;;;;;40.63;28.67;;;;;;;;;;4966644;28;20180;-73
2021/07/11 07:53:23;;;;;;;39.20;28.80;;;;;;;;;;4965919;28;20465;-75
2021/07/11 07:55:49;;;;;;;35.30;27.92;;;;;;;;;;4983156;28;20195;-73
2021/07/11 07:58:15;;;;;;;34.60;26.80;;;;;;;;;;4966581;28;20606;-73
2021/07/11 08:00:40;;;;;;;35.30;26.23;;;;;;;;;;4964538;28;20176;-74
2021/07/11 08:03:05;;;;;;;34.50;27.70;;;;;;;;;;4961317;28;20202;-73
2021/07/11 08:05:30;;;;;;;38.47;28.42;;;;;;;;;;4965733;28;20744;-73
2021/07/11 08:07:55;;;;;;;33.47;24.88;;;;;;;;;;4964537;28;20712;-73
2021/07/11 08:10:21;;;;;;;31.52;24.25;;;;;;;;;;4969687;28;20267;-73
2021/07/11 08:12:46;;;;;;;30.75;24.20;;;;;;;;;;4966132;28;20179;-72
2021/07/11 08:15:19;;;;;;;30.60;24.52;;;;;;;;;;4968713;28;20298;-72
2021/07/11 08:17:45;;;;;;;31.60;24.88;;;;;;;;;;4962760;28;20181;-74
2021/07/11 08:20:11;;;;;;;29.60;23.23;;;;;;;;;;4964265;28;20188;-73
2021/07/11 08:22:36;;;;;;;30.52;25.90;;;;;;;;;;4966842;28;20188;-72
2021/07/11 08:25:02;;;;;;;30.40;23.92;;;;;;;;;;4961930;28;20694;-73
2021/07/11 08:27:27;;;;;;;26.10;23.10;;;;;;;;;;4960679;28;20280;-72
2021/07/11 08:29:52;;;;;;;27.07;22.93;;;;;;;;;;4965705;28;20668;-72
2021/07/11 08:32:18;;;;;;;28.33;22.43;;;;;;;;;;4963142;28;20427;-72
2021/07/11 08:34:43;;;;;;;29.70;24.02;;;;;;;;;;4966726;28;20955;-72
2021/07/11 08:37:08;;;;;;;27.73;23.57;;;;;;;;;;4966224;28;20192;-72
2021/07/11 08:39:33;;;;;;;26.75;23.13;;;;;;;;;;4971236;28;21003;-73
2021/07/11 08:41:59;;;;;;;28.77;24.33;;;;;;;;;;4966123;28;20199;-72
2021/07/11 08:44:24;;;;;;;28.90;24.83;;;;;;;;;;4965439;28;20466;-72
2021/07/11 08:46:49;;;;;;;28.95;24.17;;;;;;;;;;4964425;28;20181;-71
2021/07/11 08:49:15;;;;;;;29.03;23.37;;;;;;;;;;4981253;28;20297;-72
2021/07/11 08:51:40;;;;;;;27.13;22.25;;;;;;;;;;4980701;28;20426;-72
2021/07/11 08:54:05;;;;;;;28.08;22.90;;;;;;;;;;4960007;28;20208;-72
2021/07/11 08:56:30;;;;;;;29.53;23.60;;;;;;;;;;4962073;28;20193;-73
2021/07/11 08:58:57;;;;;;;26.45;23.25;;;;;;;;;;4964416;28;20458;-73
2021/07/11 09:01:23;;;;;;;28.70;22.67;;;;;;;;;;4965010;28;20422;-72
2021/07/11 09:04:07;;;;;;;31.23;24.98;;;;;;;;;;4966999;28;20197;-73
2021/07/11 09:06:47;;;;;;;28.17;22.50;;;;;;;;;;4966572;28;20234;-71
2021/07/11 09:09:21;;;;;;;25.50;21.48;;;;;;;;;;4964028;28;20227;-72
2021/07/11 09:11:51;;;;;;;26.90;23.27;;;;;;;;;;4967884;28;20551;-72
2021/07/11 09:14:18;;;;;;;29.50;23.45;;;;;;;;;;4958891;28;20212;-72
2021/07/11 09:16:44;;;;;;;27.27;22.92;;;;;;;;;;4955643;28;20177;-72
2021/07/11 09:19:28;;;;;;;30.38;25.05;;;;;;;;;;4966791;28;20267;-72
2021/07/11 09:21:54;;;;;;;29.58;23.05;;;;;;;;;;4963237;28;20180;-72
2021/07/11 09:24:20;;;;;;;25.73;22.75;;;;;;;;;;4977421;28;20787;-72
2021/07/11 09:26:46;;;;;;;25.98;22.52;;;;;;;;;;4967534;28;20192;-72
2021/07/11 09:29:11;;;;;;;26.23;22.08;;;;;;;;;;4967239;28;20169;-72
2021/07/11 09:31:36;;;;;;;24.80;21.47;;;;;;;;;;4956523;28;20180;-71
2021/07/11 09:34:01;;;;;;;27.02;21.73;;;;;;;;;;4960091;28;20549;-72
2021/07/11 09:36:27;;;;;;;24.40;20.92;;;;;;;;;;4961849;28;20189;-72
2021/07/11 09:38:54;;;;;;;27.00;23.00;;;;;;;;;;4963205;28;20565;-72
2021/07/11 09:41:22;;;;;;;30.02;24.48;;;;;;;;;;4958659;28;20186;-72
2021/07/11 09:43:48;;;;;;;27.50;22.67;;;;;;;;;;4961514;28;20196;-71
2021/07/11 09:46:14;;;;;;;30.73;25.10;;;;;;;;;;4958877;28;20705;-72
2021/07/11 09:48:39;;;;;;;29.35;23.65;;;;;;;;;;4959501;28;20681;-72
2021/07/11 09:51:22;;;;;;;33.10;24.60;;;;;;;;;;4957891;28;20249;-72
2021/07/11 09:53:49;;;;;;;34.90;25.70;;;;;;;;;;4972464;28;20786;-71
2021/07/11 09:56:30;;;;;;;29.55;23.10;;;;;;;;;;4956814;28;20176;-72
2021/07/11 09:58:56;;;;;;;28.05;22.42;;;;;;;;;;4958924;28;20192;-72
2021/07/11 10:01:22;;;;;;;31.92;24.90;;;;;;;;;;4957508;28;20184;-71
2021/07/11 10:03:47;;;;;;;32.78;24.98;;;;;;;;;;4972649;28;20259;-72
2021/07/11 10:06:13;;;;;;;35.60;25.10;;;;;;;;;;4955771;28;20686;-71
2021/07/11 10:08:38;;;;;;;39.37;26.83;;;;;;;;;;4960307;28;20288;-71
2021/07/11 10:11:03;;;;;;;39.42;27.92;;;;;;;;;;4957618;28;20426;-71
2021/07/11 10:13:28;;;;;;;42.25;29.40;;;;;;;;;;4960979;28;20626;-70
2021/07/11 10:15:54;;;;;;;42.92;29.30;;;;;;;;;;4960703;28;20274;-71
2021/07/11 10:18:20;;;;;;;35.47;26.00;;;;;;;;;;4959745;28;20565;-71
2021/07/11 10:20:48;;;;;;;33.50;25.25;;;;;;;;;;4959321;28;20240;-72
2021/07/11 10:23:24;;;;;;;32.30;23.55;;;;;;;;;;4955796;28;20353;-72
2021/07/11 10:25:54;;;;;;;37.30;25.35;;;;;;;;;;4958613;28;20220;-71
2021/07/11 10:28:23;;;;;;;23.35;19.50;;;;;;;;;;4970377;28;20279;-72
2021/07/11 10:30:48;;;;;;;19.88;17.60;;;;;;;;;;4954474;28;20184;-71
2021/07/11 10:33:17;;;;;;;20.35;17.08;;;;;;;;;;4957520;28;20322;-72
2021/07/11 10:35:54;;;;;;;19.20;16.98;;;;;;;;;;4971467;28;20666;-71
2021/07/11 10:38:36;;;;;;;19.30;17.17;;;;;;;;;;4957691;28;20192;-71
2021/07/11 10:41:10;;;;;;;20.10;17.42;;;;;;;;;;4957044;28;20180;-71
2021/07/11 10:43:36;;;;;;;15.30;13.68;;;;;;;;;;4954922;28;20203;-71
2021/07/11 10:46:01;;;;;;;16.77;14.80;;;;;;;;;;4954851;28;20263;-71
2021/07/11 10:48:27;;;;;;;15.90;14.30;;;;;;;;;;4959813;28;20534;-71
2021/07/11 10:50:52;;;;;;;16.33;14.68;;;;;;;;;;4957002;28;20580;-71
2021/07/11 10:53:18;;;;;;;17.23;15.53;;;;;;;;;;4958241;28;20226;-71
2021/07/11 10:55:44;;;;;;;14.85;13.38;;;;;;;;;;4956797;28;21560;-71
2021/07/11 10:58:10;;;;;;;14.38;13.05;;;;;;;;;;4960959;28;20180;-71
2021/07/11 11:00:35;;;;;;;15.57;14.02;;;;;;;;;;4956718;28;20749;-72
2021/07/11 11:03:13;;;;;;;15.40;13.90;;;;;;;;;;4960927;28;20191;-72
2021/07/11 11:05:41;;;;;;;14.98;13.40;;;;;;;;;;4953517;28;20545;-72
2021/07/11 11:08:10;;;;;;;14.30;12.93;;;;;;;;;;4968584;28;20176;-71
2021/07/11 11:10:36;;;;;;;15.32;13.70;;;;;;;;;;4957377;28;20180;-72
2021/07/11 11:13:04;;;;;;;17.48;13.65;;;;;;;;;;4958882;28;20183;-71
2021/07/11 11:15:34;;;;;;;12.85;11.73;;;;;;;;;;4956350;28;20192;-71
2021/07/11 11:18:10;;;;;;;14.38;12.88;;;;;;;;;;4957003;28;20227;-71
2021/07/11 11:20:35;;;;;;;14.75;13.35;;;;;;;;;;4954970;28;20590;-72
2021/07/11 11:23:00;;;;;;;14.35;12.93;;;;;;;;;;4960157;28;20755;-72
2021/07/11 11:25:26;;;;;;;14.10;12.80;;;;;;;;;;4965058;28;20206;-71
2021/07/11 11:27:54;;;;;;;14.60;13.20;;;;;;;;;;4955515;28;20204;-72
2021/07/11 11:30:25;;;;;;;13.75;12.35;;;;;;;;;;4954707;28;20181;-72
2021/07/11 11:32:55;;;;;;;12.57;11.38;;;;;;;;;;4959340;28;20539;-72
2021/07/11 11:35:22;;;;;;;13.55;12.18;;;;;;;;;;4958649;28;20176;-72
2021/07/11 11:37:48;;;;;;;14.18;12.77;;;;;;;;;;4958223;28;20221;-71
2021/07/11 11:40:14;;;;;;;14.40;13.13;;;;;;;;;;4958601;28;20253;-72
2021/07/11 11:42:46;;;;;;;14.10;12.75;;;;;;;;;;4961696;28;20180;-72
2021/07/11 11:45:12;;;;;;;13.73;12.52;;;;;;;;;;4955513;28;20358;-70
2021/07/11 11:47:37;;;;;;;14.90;13.50;;;;;;;;;;4956531;28;20192;-69
2021/07/11 11:50:13;;;;;;;14.45;13.15;;;;;;;;;;4955464;28;20681;-70
2021/07/11 11:52:39;;;;;;;15.07;13.70;;;;;;;;;;4955930;28;20227;-70
2021/07/11 11:55:05;;;;;;;15.18;13.75;;;;;;;;;;4957515;28;20334;-69
2021/07/11 11:57:32;;;;;;;16.65;15.13;;;;;;;;;;4958099;28;20551;-70
2021/07/11 11:59:58;;;;;;;15.23;13.73;;;;;;;;;;4960592;28;20219;-73
2021/07/11 12:02:23;;;;;;;16.23;14.73;;;;;;;;;;4957537;28;20315;-72
2021/07/11 12:04:48;;;;;;;15.30;13.85;;;;;;;;;;4965281;28;20733;-73
2021/07/11 12:07:14;;;;;;;14.43;13.03;;;;;;;;;;4961758;28;20187;-72
2021/07/11 12:09:39;;;;;;;18.20;16.42;;;;;;;;;;4958281;28;20832;-72
2021/07/11 12:12:05;;;;;;;17.63;15.83;;;;;;;;;;4955598;28;20248;-73
2021/07/11 12:14:31;;;;;;;18.95;17.13;;;;;;;;;;4955506;28;20562;-72
2021/07/11 12:16:58;;;;;;;18.02;16.20;;;;;;;;;;4957839;28;20279;-72
2021/07/11 12:19:23;;;;;;;17.55;15.85;;;;;;;;;;4957030;28;20189;-70
2021/07/11 12:21:48;;;;;;;19.58;17.55;;;;;;;;;;4955899;28;20184;-73
2021/07/11 12:24:19;;;;;;;19.90;18.00;;;;;;;;;;4960352;28;20362;-72
2021/07/11 12:26:46;;;;;;;20.48;18.02;;;;;;;;;;4953574;28;20180;-72
2021/07/11 12:29:11;;;;;;;19.80;17.80;;;;;;;;;;4955217;28;20172;-72
2021/07/11 12:31:37;;;;;;;20.15;18.35;;;;;;;;;;4958284;28;20181;-72
2021/07/11 12:34:03;;;;;;;21.25;19.15;;;;;;;;;;4961339;28;20218;-72
2021/07/11 12:36:29;;;;;;;21.85;19.65;;;;;;;;;;4959321;28;20221;-72
2021/07/11 12:38:55;;;;;;;22.73;20.42;;;;;;;;;;4966351;28;20172;-72
2021/07/11 12:41:26;;;;;;;21.40;19.20;;;;;;;;;;4964599;28;20308;-72
2021/07/11 12:43:53;;;;;;;22.00;19.70;;;;;;;;;;4962341;28;20208;-72
2021/07/11 12:46:23;;;;;;;23.15;20.65;;;;;;;;;;4959620;28;20240;-72
2021/07/11 12:48:49;;;;;;;22.42;20.13;;;;;;;;;;4957964;28;20271;-72
2021/07/11 12:51:14;;;;;;;22.95;20.70;;;;;;;;;;4961025;28;20196;-71
2021/07/11 12:53:40;;;;;;;21.03;18.93;;;;;;;;;;4958018;28;20212;-72
2021/07/11 12:56:05;;;;;;;21.45;19.33;;;;;;;;;;4960357;28;20682;-72
2021/07/11 12:58:37;;;;;;;18.02;16.15;;;;;;;;;;4961638;28;20215;-71
2021/07/11 13:01:03;;;;;;;19.17;17.27;;;;;;;;;;4960071;28;20263;-72
2021/07/11 13:03:28;;;;;;;20.63;18.45;;;;;;;;;;4961103;28;20258;-72
2021/07/11 13:05:57;;;;;;;17.27;15.57;;;;;;;;;;4960143;28;20212;-73
2021/07/11 13:08:22;;;;;;;18.25;16.45;;;;;;;;;;4966693;28;20454;-72
2021/07/11 13:10:47;;;;;;;17.73;15.38;;;;;;;;;;4962012;28;20279;-73
2021/07/11 13:13:12;;;;;;;16.70;14.77;;;;;;;;;;4965010;28;20203;-72
2021/07/11 13:15:38;;;;;;;15.47;13.87;;;;;;;;;;4959374;28;20196;-72
2021/07/11 13:18:05;;;;;;;17.73;15.85;;;;;;;;;;4963370;28;20505;-73
2021/07/11 13:20:30;;;;;;;15.68;14.10;;;;;;;;;;4960024;28;20211;-73
2021/07/11 13:22:55;;;;;;;16.10;14.63;;;;;;;;;;4972678;28;20318;-72
2021/07/11 13:25:21;;;;;;;15.90;14.43;;;;;;;;;;4957687;28;20880;-72
2021/07/11 13:27:46;;;;;;;17.25;15.55;;;;;;;;;;4959271;28;20183;-72
2021/07/11 13:30:13;;;;;;;16.55;14.85;;;;;;;;;;4957761;28;20183;-72
2021/07/11 13:32:38;;;;;;;16.27;14.60;;;;;;;;;;4958638;28;20322;-73
2021/07/11 13:35:04;;;;;;;13.53;12.33;;;;;;;;;;4964283;28;20749;-72
2021/07/11 13:37:29;;;;;;;12.65;11.57;;;;;;;;;;4957132;28;21446;-72
2021/07/11 13:39:54;;;;;;;9.30;8.50;;;;;;;;;;4962153;28;20941;-72
2021/07/11 13:42:19;;;;;;;8.83;8.13;;;;;;;;;;4969539;28;20675;-73
2021/07/11 13:44:45;;;;;;;8.87;8.00;;;;;;;;;;4969499;28;20520;-72
2021/07/11 13:47:11;;;;;;;8.20;7.50;;;;;;;;;;4964554;28;20422;-72
2021/07/11 13:49:36;;;;;;;8.20;7.45;;;;;;;;;;4960403;28;20279;-72
2021/07/11 13:52:01;;;;;;;7.80;7.20;;;;;;;;;;4956020;28;20177;-71
2021/07/11 13:54:26;;;;;;;7.47;6.78;;;;;;;;;;4960570;28;20490;-71
2021/07/11 13:56:51;;;;;;;7.93;7.33;;;;;;;;;;4958594;28;20275;-72
2021/07/11 13:59:18;;;;;;;9.90;8.25;;;;;;;;;;4958205;28;20204;-71
2021/07/11 14:01:43;;;;;;;10.13;7.90;;;;;;;;;;4970033;28;20187;-71
2021/07/11 14:04:08;;;;;;;7.68;6.38;;;;;;;;;;4962844;28;21057;-71
2021/07/11 14:06:34;;;;;;;6.00;5.47;;;;;;;;;;4961102;28;20208;-72
2021/07/11 14:08:59;;;;;;;6.07;5.47;;;;;;;;;;4975451;28;20199;-72
2021/07/11 14:11:25;;;;;;;6.40;5.80;;;;;;;;;;4958545;28;20176;-72
2021/07/11 14:13:50;;;;;;;5.10;4.60;;;;;;;;;;4961819;28;20629;-72